Time;durP1;ratioP1;P1;durP2;ratioP2;P2;SDS_P1;SDS_P2;PMS_P1;PMS_P2;Temp;Humidity;BMP_temperature;BMP_pressure;BME280_temperature;BME280_humidity;BME280_pressure;Samples;Min_cycle;Max_cycle;Signal;HPM_P1;HPM_P2
2022/12/02 00:01:52;;;;;;;;;;;4.40;99.90;;;;;;5103770;28;19955;-39
2022/12/02 00:04:26;;;;;;;;;;;4.40;99.90;;;;;;5098124;28;19918;-41
2022/12/02 00:06:52;;;;;;;;;;;4.40;99.90;;;;;;5116768;28;19951;-41
2022/12/02 00:09:26;;;;;;;;;;;4.40;99.90;;;;;;5115554;28;20290;-39
2022/12/02 00:11:52;;;;;;;;;;;4.40;99.90;;;;;;5116612;28;19912;-40
2022/12/02 00:14:22;;;;;;;;;;;4.40;99.90;;;;;;5116392;28;20263;-40
2022/12/02 00:16:48;;;;;;;;;;;4.40;99.90;;;;;;5110139;28;19934;-41
2022/12/02 00:19:14;;;;;;;;;;;4.40;99.90;;;;;;5102845;28;20285;-39
2022/12/02 00:21:39;;;;;;;;;;;4.40;99.90;;;;;;5109335;28;20446;-41
2022/12/02 00:24:05;;;;;;;;;;;4.50;99.90;;;;;;5116138;28;19908;-39
2022/12/02 00:26:30;;;;;;;;;;;4.40;99.90;;;;;;5116118;28;19961;-40
2022/12/02 00:28:56;;;;;;;;;;;4.40;99.90;;;;;;5115463;28;19924;-41
2022/12/02 00:31:21;;;;;;;;;;;4.40;99.90;;;;;;5116247;28;20381;-40
2022/12/02 00:33:47;;;;;;;;;;;4.40;99.90;;;;;;5116172;28;20010;-41
2022/12/02 00:36:12;;;;;;;;;;;4.40;99.90;;;;;;5115004;28;19912;-40
2022/12/02 00:38:38;;;;;;;;;;;4.40;99.90;;;;;;5116087;28;19908;-41
2022/12/02 00:41:03;;;;;;;;;;;4.40;99.90;;;;;;5108330;28;19920;-41
2022/12/02 00:46:31;;;;;;;;;;;4.40;99.90;;;;;;5095726;28;19939;-40
2022/12/02 00:48:57;;;;;;;;;;;4.30;99.90;;;;;;5095572;28;19997;-40
2022/12/02 00:51:22;;;;;;;;;;;4.30;99.90;;;;;;5094665;28;20200;-41
2022/12/02 00:53:48;;;;;;;;;;;4.40;99.90;;;;;;5095301;28;20190;-39
2022/12/02 00:56:13;;;;;;;;;;;4.40;99.90;;;;;;5095505;28;20038;-40
2022/12/02 00:58:39;;;;;;;;;;;4.30;99.90;;;;;;5094470;28;20367;-41
2022/12/02 01:01:04;;;;;;;;;;;4.40;99.90;;;;;;5094322;28;19920;-39
2022/12/02 01:03:30;;;;;;;;;;;4.30;99.90;;;;;;5095153;28;19977;-40
2022/12/02 01:05:55;;;;;;;;;;;4.30;99.90;;;;;;5094334;28;19909;-39
2022/12/02 01:08:24;;;;;;;;;;;4.30;99.90;;;;;;5095240;28;20374;-39
2022/12/02 01:10:49;;;;;;;;;;;4.30;99.90;;;;;;5093920;28;20437;-39
2022/12/02 01:13:15;;;;;;;;;;;4.20;99.90;;;;;;5094909;28;19999;-41
2022/12/02 01:15:40;;;;;;;;;;;4.20;99.90;;;;;;5101970;28;19911;-39
2022/12/02 01:18:06;;;;;;;;;;;4.20;99.90;;;;;;5114513;28;19908;-40
2022/12/02 01:20:31;;;;;;;;;;;4.20;99.90;;;;;;5115165;28;19919;-39
2022/12/02 01:22:57;;;;;;;;;;;4.20;99.90;;;;;;5115063;28;19912;-39
2022/12/02 01:25:22;;;;;;;;;;;4.10;99.90;;;;;;5114298;28;19908;-40
2022/12/02 01:27:48;;;;;;;;;;;4.20;99.90;;;;;;5115107;28;19930;-39
2022/12/02 01:30:13;;;;;;;;;;;4.20;99.90;;;;;;5115078;28;19908;-40
2022/12/02 01:32:39;;;;;;;;;;;4.10;99.90;;;;;;5114155;28;19908;-40
2022/12/02 01:35:05;;;;;;;;;;;4.10;99.90;;;;;;5110128;28;20425;-41
2022/12/02 01:37:30;;;;;;;;;;;4.00;99.90;;;;;;5094403;28;19916;-39
2022/12/02 01:39:56;;;;;;;;;;;4.10;99.90;;;;;;5093813;28;19912;-41
2022/12/02 01:42:21;;;;;;;;;;;4.10;99.90;;;;;;5094321;28;19943;-40
2022/12/02 01:44:47;;;;;;;;;;;4.00;99.90;;;;;;5094381;28;19912;-41
2022/12/02 01:47:12;;;;;;;;;;;4.00;99.90;;;;;;5093659;28;19908;-39
2022/12/02 01:49:38;;;;;;;;;;;4.00;99.90;;;;;;5094305;28;19908;-39
2022/12/02 01:52:03;;;;;;;;;;;4.00;99.90;;;;;;5094096;28;20424;-39
2022/12/02 01:54:29;;;;;;;;;;;4.00;99.90;;;;;;5094372;28;19912;-39
2022/12/02 01:56:54;;;;;;;;;;;4.00;99.90;;;;;;5114570;28;19951;-39
2022/12/02 01:59:21;;;;;;;;;;;3.90;99.90;;;;;;5114494;28;20181;-39
2022/12/02 02:01:47;;;;;;;;;;;3.90;99.90;;;;;;5113565;28;20363;-40
2022/12/02 02:04:12;;;;;;;;;;;3.90;99.90;;;;;;5114324;28;19961;-40
2022/12/02 02:06:40;;;;;;;;;;;3.90;99.90;;;;;;5114193;28;20300;-41
2022/12/02 02:09:09;;;;;;;;;;;3.80;99.90;;;;;;5113184;28;20049;-40
2022/12/02 02:11:35;;;;;;;;;;;3.80;99.90;;;;;;5093869;28;19958;-40
2022/12/02 02:14:02;;;;;;;;;;;3.80;99.90;;;;;;5092793;28;19908;-39
2022/12/02 02:16:28;;;;;;;;;;;3.80;99.90;;;;;;5093594;28;19920;-39
2022/12/02 02:18:53;;;;;;;;;;;3.80;99.90;;;;;;5093827;28;19908;-41
2022/12/02 02:21:21;;;;;;;;;;;3.80;99.90;;;;;;5109559;28;19924;-40
2022/12/02 02:23:47;;;;;;;;;;;3.80;99.90;;;;;;5114051;28;19924;-41
2022/12/02 02:26:12;;;;;;;;;;;3.70;99.90;;;;;;5098921;28;19908;-40
2022/12/02 02:28:38;;;;;;;;;;;3.80;99.90;;;;;;5092769;28;20022;-40
2022/12/02 02:31:03;;;;;;;;;;;3.70;99.90;;;;;;5093610;28;19955;-39
2022/12/02 02:33:30;;;;;;;;;;;3.80;99.90;;;;;;5093208;28;19932;-41
2022/12/02 02:35:56;;;;;;;;;;;3.70;99.90;;;;;;5093660;28;19908;-41
2022/12/02 02:38:22;;;;;;;;;;;3.70;99.90;;;;;;5093418;28;20432;-40
2022/12/02 02:40:48;;;;;;;;;;;3.70;99.90;;;;;;5093326;28;19916;-39
2022/12/02 02:43:15;;;;;;;;;;;3.70;99.90;;;;;;5092554;28;19962;-40
2022/12/02 02:45:41;;;;;;;;;;;3.70;99.90;;;;;;5093245;28;19909;-39
2022/12/02 02:48:08;;;;;;;;;;;3.70;99.90;;;;;;5093158;28;20286;-41
2022/12/02 02:50:35;;;;;;;;;;;3.70;99.90;;;;;;5092345;28;19975;-39
2022/12/02 02:53:00;;;;;;;;;;;3.70;99.90;;;;;;5093207;28;19953;-40
2022/12/02 02:55:26;;;;;;;;;;;3.70;99.90;;;;;;5093179;28;19916;-40
2022/12/02 02:57:52;;;;;;;;;;;3.70;99.90;;;;;;5093262;28;20260;-40
2022/12/02 03:00:18;;;;;;;;;;;3.70;99.90;;;;;;5092930;28;19937;-41
2022/12/02 03:02:45;;;;;;;;;;;3.70;99.90;;;;;;5099502;28;19946;-39
2022/12/02 03:05:11;;;;;;;;;;;3.70;99.90;;;;;;5112673;28;19918;-41
2022/12/02 03:07:36;;;;;;;;;;;3.70;99.90;;;;;;5113263;28;20349;-39
2022/12/02 03:10:02;;;;;;;;;;;3.70;99.90;;;;;;5113284;28;20425;-40
2022/12/02 03:12:28;;;;;;;;;;;3.70;99.90;;;;;;5102364;28;20336;-39
2022/12/02 03:14:53;;;;;;;;;;;3.60;99.90;;;;;;5113246;28;19961;-41
2022/12/02 03:17:19;;;;;;;;;;;3.60;99.90;;;;;;5103818;28;19919;-39
2022/12/02 03:19:45;;;;;;;;;;;3.60;99.90;;;;;;5092690;28;19909;-40
2022/12/02 03:22:10;;;;;;;;;;;3.60;99.90;;;;;;5092638;28;19934;-40
2022/12/02 03:24:36;;;;;;;;;;;3.70;99.90;;;;;;5091084;28;19916;-39
2022/12/02 03:27:03;;;;;;;;;;;3.70;99.90;;;;;;5092764;28;19908;-40
2022/12/02 03:29:28;;;;;;;;;;;3.70;99.90;;;;;;5092387;28;20378;-41
2022/12/02 03:31:55;;;;;;;;;;;3.70;99.90;;;;;;5091972;28;19930;-40
2022/12/02 03:34:20;;;;;;;;;;;3.70;99.90;;;;;;5105622;28;20002;-40
2022/12/02 03:36:45;;;;;;;;;;;3.70;99.90;;;;;;5113013;28;20414;-39
2022/12/02 03:39:11;;;;;;;;;;;3.70;99.90;;;;;;5112333;28;19908;-41
2022/12/02 03:41:38;;;;;;;;;;;3.70;99.90;;;;;;5112824;28;19920;-39
2022/12/02 03:44:03;;;;;;;;;;;3.70;99.90;;;;;;5113028;28;20251;-39
2022/12/02 03:46:29;;;;;;;;;;;3.70;99.90;;;;;;5111644;28;19915;-39
2022/12/02 03:48:55;;;;;;;;;;;3.70;99.90;;;;;;5112898;28;19930;-39
2022/12/02 03:51:21;;;;;;;;;;;3.70;99.90;;;;;;5112680;28;19908;-40
2022/12/02 03:53:46;;;;;;;;;;;3.60;99.90;;;;;;5112159;28;19954;-41
2022/12/02 03:56:12;;;;;;;;;;;3.60;99.90;;;;;;5111134;28;20393;-40
2022/12/02 03:58:43;;;;;;;;;;;3.60;99.90;;;;;;5092318;28;19969;-39
2022/12/02 04:01:08;;;;;;;;;;;3.60;99.90;;;;;;5091673;28;19920;-41
2022/12/02 04:03:33;;;;;;;;;;;3.60;99.90;;;;;;5092308;28;19915;-38
2022/12/02 04:05:59;;;;;;;;;;;3.50;99.90;;;;;;5092618;28;19908;-39
2022/12/02 04:08:25;;;;;;;;;;;3.50;99.90;;;;;;5091574;28;19908;-42
2022/12/02 04:10:50;;;;;;;;;;;3.50;99.90;;;;;;5092104;28;19924;-39
2022/12/02 04:13:15;;;;;;;;;;;3.50;99.90;;;;;;5092380;28;20012;-40
2022/12/02 04:15:41;;;;;;;;;;;3.50;99.90;;;;;;5091529;28;19908;-40
2022/12/02 04:18:06;;;;;;;;;;;3.40;99.90;;;;;;5106434;28;19957;-39
2022/12/02 04:20:32;;;;;;;;;;;3.50;99.90;;;;;;5111558;28;19955;-41
2022/12/02 04:22:57;;;;;;;;;;;3.40;99.90;;;;;;5112748;28;19919;-39
2022/12/02 04:25:23;;;;;;;;;;;3.40;99.90;;;;;;5112473;28;19907;-39
2022/12/02 04:27:48;;;;;;;;;;;3.40;99.90;;;;;;5093171;28;19915;-39
2022/12/02 04:30:14;;;;;;;;;;;3.40;99.90;;;;;;5112567;28;19915;-40
2022/12/02 04:32:39;;;;;;;;;;;3.40;99.90;;;;;;5112094;28;19912;-41
2022/12/02 04:35:04;;;;;;;;;;;3.40;99.90;;;;;;5097608;28;20037;-39
2022/12/02 04:37:30;;;;;;;;;;;3.40;99.90;;;;;;5108689;28;20166;-41
2022/12/02 04:39:55;;;;;;;;;;;3.40;99.90;;;;;;5116290;28;19907;-41
2022/12/02 04:42:21;;;;;;;;;;;3.30;99.90;;;;;;5115214;28;19916;-39
2022/12/02 04:44:46;;;;;;;;;;;3.40;99.90;;;;;;5116012;28;19912;-40
2022/12/02 04:47:12;;;;;;;;;;;3.40;99.90;;;;;;5115946;28;19911;-40
2022/12/02 04:49:37;;;;;;;;;;;3.30;99.90;;;;;;5115293;28;19927;-39
2022/12/02 04:52:03;;;;;;;;;;;3.30;99.90;;;;;;5115998;28;19947;-40
2022/12/02 04:54:29;;;;;;;;;;;3.30;99.90;;;;;;5115820;28;19907;-41
2022/12/02 04:56:54;;;;;;;;;;;3.30;99.90;;;;;;5115036;28;19915;-40
2022/12/02 04:59:19;;;;;;;;;;;3.30;99.90;;;;;;5115749;28;19908;-41
2022/12/02 05:01:45;;;;;;;;;;;3.30;99.90;;;;;;5115580;28;20390;-41
2022/12/02 05:04:10;;;;;;;;;;;3.30;99.90;;;;;;5096673;28;19915;-40
2022/12/02 05:06:36;;;;;;;;;;;3.20;99.90;;;;;;5109687;28;19938;-39
2022/12/02 05:09:01;;;;;;;;;;;3.30;99.90;;;;;;5095867;28;19950;-40
2022/12/02 05:11:27;;;;;;;;;;;3.30;99.90;;;;;;5094075;28;20385;-40
2022/12/02 05:13:52;;;;;;;;;;;3.30;99.90;;;;;;5094301;28;19927;-41
2022/12/02 05:16:18;;;;;;;;;;;3.20;99.90;;;;;;5095031;28;20003;-39
2022/12/02 05:18:43;;;;;;;;;;;3.30;99.90;;;;;;5094031;28;19908;-41
2022/12/02 05:21:09;;;;;;;;;;;3.20;99.90;;;;;;5094916;28;19917;-39
2022/12/02 05:23:34;;;;;;;;;;;3.20;99.90;;;;;;5094787;28;19908;-40
2022/12/02 05:25:59;;;;;;;;;;;3.20;99.90;;;;;;5093945;28;19908;-40
2022/12/02 05:28:25;;;;;;;;;;;3.20;99.90;;;;;;5094705;28;19909;-39
2022/12/02 05:30:50;;;;;;;;;;;3.20;99.90;;;;;;5094238;28;19915;-40
2022/12/02 05:33:16;;;;;;;;;;;3.20;99.90;;;;;;5094197;28;19934;-39
2022/12/02 05:35:41;;;;;;;;;;;3.20;99.90;;;;;;5094361;28;19943;-39
2022/12/02 05:38:07;;;;;;;;;;;3.20;99.90;;;;;;5093940;28;19955;-40
2022/12/02 05:40:32;;;;;;;;;;;3.20;99.90;;;;;;5111610;28;19912;-39
2022/12/02 05:43:12;;;;;;;;;;;3.20;99.90;;;;;;5114839;28;20382;-39
2022/12/02 05:45:38;;;;;;;;;;;3.20;99.90;;;;;;5113281;28;19915;-40
2022/12/02 05:48:04;;;;;;;;;;;3.10;99.90;;;;;;5114293;28;19912;-40
2022/12/02 05:50:32;;;;;;;;;;;3.10;99.90;;;;;;5113938;28;19915;-40
2022/12/02 05:52:58;;;;;;;;;;;3.10;99.90;;;;;;5113860;28;19958;-40
2022/12/02 05:55:23;;;;;;;;;;;3.10;99.90;;;;;;5114539;28;19958;-40
2022/12/02 05:57:49;;;;;;;;;;;3.10;99.90;;;;;;5113533;28;19973;-40
2022/12/02 06:00:19;;;;;;;;;;;3.10;99.90;;;;;;5093207;28;20629;-41
2022/12/02 06:02:57;;;;;;;;;;;3.10;99.90;;;;;;5099361;28;19919;-40
2022/12/02 06:05:22;;;;;;;;;;;3.10;99.90;;;;;;5110040;28;19916;-40
2022/12/02 06:07:50;;;;;;;;;;;3.10;99.90;;;;;;5094153;28;19915;-40
2022/12/02 06:10:22;;;;;;;;;;;3.10;99.90;;;;;;5093557;28;19927;-40
2022/12/02 06:12:47;;;;;;;;;;;3.00;99.90;;;;;;5093795;28;20251;-38
2022/12/02 06:15:13;;;;;;;;;;;3.00;99.90;;;;;;5093129;28;19908;-39
2022/12/02 06:17:38;;;;;;;;;;;3.00;99.90;;;;;;5076738;28;19961;-39
2022/12/02 06:20:04;;;;;;;;;;;3.00;99.90;;;;;;5093607;28;19908;-39
2022/12/02 06:22:31;;;;;;;;;;;3.00;99.90;;;;;;5096050;28;19942;-39
2022/12/02 06:24:58;;;;;;;;;;;3.00;99.90;;;;;;5113991;28;19911;-38
2022/12/02 06:27:24;;;;;;;;;;;3.00;99.90;;;;;;5111142;28;20376;-39
2022/12/02 06:29:51;;;;;;;;;;;3.00;99.90;;;;;;5113765;28;19912;-41
2022/12/02 06:32:19;;;;;;;;;;;3.00;99.90;;;;;;5113934;28;19942;-39
2022/12/02 06:34:45;;;;;;;;;;;3.00;99.90;;;;;;5113038;28;19981;-42
2022/12/02 06:37:13;;;;;;;;;;;3.00;99.90;;;;;;5113236;28;20053;-39
2022/12/02 06:39:39;;;;;;;;;;;3.00;99.90;;;;;;5113536;28;19955;-40
2022/12/02 06:42:14;;;;;;;;;;;3.00;99.90;;;;;;5093330;28;19977;-39
2022/12/02 06:47:36;;;;;;;;;;;3.00;99.90;;;;;;5093618;28;20366;-39
2022/12/02 06:50:04;;;;;;;;;;;3.00;99.90;;;;;;5092407;28;19954;-40
2022/12/02 06:52:43;;;;;;;;;;;3.10;99.90;;;;;;5093170;28;20429;-39
2022/12/02 06:55:21;;;;;;;;;;;3.10;99.90;;;;;;5093033;28;19920;-38
2022/12/02 06:57:46;;;;;;;;;;;3.10;99.90;;;;;;5092868;28;19961;-40
2022/12/02 07:00:12;;;;;;;;;;;3.10;99.90;;;;;;5093521;28;19920;-40
2022/12/02 07:02:39;;;;;;;;;;;3.10;99.90;;;;;;5091913;28;19924;-41
2022/12/02 07:05:04;;;;;;;;;;;3.10;99.90;;;;;;5092820;28;20359;-39
2022/12/02 07:07:31;;;;;;;;;;;3.10;99.90;;;;;;5092880;28;19915;-39
2022/12/02 07:09:56;;;;;;;;;;;3.10;99.90;;;;;;5091912;28;20007;-39
2022/12/02 07:12:24;;;;;;;;;;;3.10;99.90;;;;;;5092823;28;20393;-39
2022/12/02 07:14:55;;;;;;;;;;;3.10;99.90;;;;;;5092907;28;19965;-39
2022/12/02 07:17:23;;;;;;;;;;;3.10;99.90;;;;;;5092067;28;20363;-39
2022/12/02 07:20:00;;;;;;;;;;;3.10;99.90;;;;;;5092746;28;20302;-39
2022/12/02 07:22:36;;;;;;;;;;;3.10;99.90;;;;;;5092608;28;20248;-40
2022/12/02 07:25:02;;;;;;;;;;;3.10;99.90;;;;;;5110911;28;20427;-39
2022/12/02 07:27:29;;;;;;;;;;;3.10;99.90;;;;;;5112981;28;20353;-40
2022/12/02 07:29:55;;;;;;;;;;;3.10;99.90;;;;;;5112836;28;20374;-39
2022/12/02 07:32:21;;;;;;;;;;;3.20;99.90;;;;;;5101247;28;19919;-39
2022/12/02 07:34:48;;;;;;;;;;;3.10;99.90;;;;;;5092492;28;19912;-39
2022/12/02 07:37:13;;;;;;;;;;;3.20;99.90;;;;;;5092165;28;19947;-40
2022/12/02 07:39:39;;;;;;;;;;;3.10;99.90;;;;;;5102399;28;20000;-39
2022/12/02 07:42:04;;;;;;;;;;;3.20;99.90;;;;;;5103691;28;19927;-41
2022/12/02 07:44:30;;;;;;;;;;;3.20;99.90;;;;;;5108278;28;20382;-41
2022/12/02 07:46:55;;;;;;;;;;;3.20;99.90;;;;;;5111066;28;19934;-40
2022/12/02 07:49:21;;;;;;;;;;;3.20;99.90;;;;;;5112865;28;19912;-40
2022/12/02 07:51:47;;;;;;;;;;;3.20;99.90;;;;;;5110242;28;19912;-39
2022/12/02 07:54:12;;;;;;;;;;;3.20;99.90;;;;;;5105236;28;19926;-39
2022/12/02 07:56:37;;;;;;;;;;;3.20;99.90;;;;;;5102050;28;20300;-39
2022/12/02 07:59:03;;;;;;;;;;;3.20;99.90;;;;;;5128702;28;19914;-40
2022/12/02 08:01:28;;;;;;;;;;;3.30;99.90;;;;;;5130421;28;19926;-40
2022/12/02 08:03:54;;;;;;;;;;;3.30;99.90;;;;;;5113026;28;19912;-39
2022/12/02 08:06:19;;;;;;;;;;;3.30;99.90;;;;;;5092926;28;19912;-39
2022/12/02 08:08:45;;;;;;;;;;;3.30;99.90;;;;;;5092325;28;19909;-42
2022/12/02 08:11:10;;;;;;;;;;;3.30;99.90;;;;;;5094782;28;19932;-39
2022/12/02 08:13:36;;;;;;;;;;;3.30;99.90;;;;;;5095567;28;19931;-39
2022/12/02 08:16:01;;;;;;;;;;;3.30;99.90;;;;;;5096103;28;19908;-39
2022/12/02 08:18:27;;;;;;;;;;;3.30;99.90;;;;;;5096035;28;20359;-39
2022/12/02 08:20:52;;;;;;;;;;;3.30;99.90;;;;;;5095088;28;19931;-39
2022/12/02 08:23:18;;;;;;;;;;;3.30;99.90;;;;;;5096047;28;19919;-40
2022/12/02 08:25:43;;;;;;;;;;;3.30;99.90;;;;;;5095726;28;19908;-40
2022/12/02 08:28:09;;;;;;;;;;;3.30;99.90;;;;;;5095099;28;20340;-40
2022/12/02 08:30:34;;;;;;;;;;;3.30;99.90;;;;;;5111421;27;19918;-39
2022/12/02 08:32:59;;;;;;;;;;;3.30;99.90;;;;;;5136812;27;19976;-39
2022/12/02 08:35:25;;;;;;;;;;;3.30;99.90;;;;;;5127364;27;20010;-39
2022/12/02 08:37:50;;;;;;;;;;;3.30;99.90;;;;;;5116039;28;20354;-39
2022/12/02 08:40:16;;;;;;;;;;;3.40;99.90;;;;;;5116020;28;19908;-39
2022/12/02 08:42:41;;;;;;;;;;;3.40;99.90;;;;;;5115118;28;19912;-39
2022/12/02 08:45:07;;;;;;;;;;;3.40;99.90;;;;;;5116027;28;19930;-40
2022/12/02 08:47:32;;;;;;;;;;;3.40;99.90;;;;;;5123853;27;19907;-40
2022/12/02 08:49:58;;;;;;;;;;;3.40;99.90;;;;;;5135806;27;20360;-40
2022/12/02 08:52:23;;;;;;;;;;;3.40;99.90;;;;;;5134294;27;19908;-40
2022/12/02 08:54:49;;;;;;;;;;;3.40;99.90;;;;;;5107494;28;19969;-41
2022/12/02 08:57:14;;;;;;;;;;;3.40;99.90;;;;;;5108585;27;19955;-40
2022/12/02 08:59:40;;;;;;;;;;;3.40;99.90;;;;;;5110693;27;19930;-39
2022/12/02 09:02:05;;;;;;;;;;;3.40;99.90;;;;;;5135474;27;19915;-40
2022/12/02 09:04:31;;;;;;;;;;;3.40;99.90;;;;;;5136241;27;20281;-41
2022/12/02 09:06:56;;;;;;;;;;;3.40;99.90;;;;;;5136201;27;19908;-39
2022/12/02 09:09:22;;;;;;;;;;;3.40;99.90;;;;;;5135152;27;19908;-40
2022/12/02 09:11:47;;;;;;;;;;;3.40;99.90;;;;;;5129765;27;20362;-39
2022/12/02 09:14:13;;;;;;;;;;;3.50;99.90;;;;;;5115483;28;19908;-39
2022/12/02 09:16:38;;;;;;;;;;;3.40;99.90;;;;;;5104397;28;20397;-40
2022/12/02 09:19:04;;;;;;;;;;;3.50;99.90;;;;;;5105360;28;19911;-40
2022/12/02 09:21:29;;;;;;;;;;;3.50;99.90;;;;;;5102145;28;19943;-39
2022/12/02 09:23:54;;;;;;;;;;;3.40;99.90;;;;;;5113199;27;19920;-40
2022/12/02 09:26:20;;;;;;;;;;;3.50;99.90;;;;;;5103474;28;20008;-40
2022/12/02 09:28:45;;;;;;;;;;;3.40;99.90;;;;;;5129744;27;19914;-41
2022/12/02 09:31:11;;;;;;;;;;;3.40;99.90;;;;;;5131134;27;19912;-39
2022/12/02 09:33:36;;;;;;;;;;;3.40;99.90;;;;;;5098055;28;19962;-39
2022/12/02 09:36:02;;;;;;;;;;;3.40;99.90;;;;;;5094589;28;20323;-40
2022/12/02 09:38:30;;;;;;;;;;;3.40;99.90;;;;;;5093704;28;19908;-41
2022/12/02 09:40:56;;;;;;;;;;;3.30;99.90;;;;;;5094332;28;19951;-40
2022/12/02 09:43:22;;;;;;;;;;;3.40;99.90;;;;;;5098293;28;19908;-41
2022/12/02 09:45:47;;;;;;;;;;;3.30;99.90;;;;;;5109067;28;20413;-41
2022/12/02 09:48:13;;;;;;;;;;;3.30;99.90;;;;;;5103653;27;20302;-39
2022/12/02 09:50:39;;;;;;;;;;;3.40;99.90;;;;;;5094373;28;19965;-39
2022/12/02 09:53:05;;;;;;;;;;;3.30;99.90;;;;;;5106847;28;19977;-39
2022/12/02 09:55:31;;;;;;;;;;;3.30;99.90;;;;;;5103174;28;19915;-39
2022/12/02 09:58:01;;;;;;;;;;;3.30;99.90;;;;;;5123956;27;19912;-39
2022/12/02 10:00:26;;;;;;;;;;;3.30;99.90;;;;;;5100051;28;19965;-39
2022/12/02 10:02:53;;;;;;;;;;;3.30;99.90;;;;;;5120403;27;20006;-40
2022/12/02 10:05:19;;;;;;;;;;;3.40;99.90;;;;;;5134246;27;19907;-40
2022/12/02 10:07:45;;;;;;;;;;;3.40;99.90;;;;;;5114443;28;20429;-40
2022/12/02 10:10:16;;;;;;;;;;;3.40;99.90;;;;;;5114215;28;19919;-39
2022/12/02 10:12:42;;;;;;;;;;;3.40;99.90;;;;;;5113138;28;19908;-40
2022/12/02 10:15:10;;;;;;;;;;;3.40;99.90;;;;;;5114801;28;19915;-40
2022/12/02 10:17:36;;;;;;;;;;;3.40;99.90;;;;;;5115231;28;19953;-39
2022/12/02 10:20:01;;;;;;;;;;;3.40;99.90;;;;;;5134881;27;19911;-39
2022/12/02 10:22:27;;;;;;;;;;;3.40;99.90;;;;;;5130195;27;19933;-40
2022/12/02 10:24:52;;;;;;;;;;;3.40;99.90;;;;;;5110108;27;19915;-39
2022/12/02 10:27:28;;;;;;;;;;;3.40;99.90;;;;;;5099769;27;20362;-41
2022/12/02 10:30:12;;;;;;;;;;;3.40;99.90;;;;;;5102857;28;19947;-40
2022/12/02 10:32:38;;;;;;;;;;;3.40;99.90;;;;;;5094342;28;20270;-38
2022/12/02 10:35:06;;;;;;;;;;;3.40;99.90;;;;;;5093533;28;20003;-41
2022/12/02 10:37:32;;;;;;;;;;;3.40;99.90;;;;;;5092798;28;19962;-39
2022/12/02 10:40:15;;;;;;;;;;;3.40;99.90;;;;;;5093033;28;19931;-39
2022/12/02 10:42:41;;;;;;;;;;;3.50;99.90;;;;;;5092569;28;19916;-40
2022/12/02 10:45:08;;;;;;;;;;;3.50;99.90;;;;;;5093454;28;19909;-39
2022/12/02 10:47:34;;;;;;;;;;;3.50;99.90;;;;;;5093283;28;20351;-39
2022/12/02 10:49:59;;;;;;;;;;;3.50;99.90;;;;;;5093525;28;19912;-39
2022/12/02 10:52:41;;;;;;;;;;;3.60;99.90;;;;;;5093859;28;19915;-39
2022/12/02 10:55:09;;;;;;;;;;;3.50;99.90;;;;;;5092225;28;19908;-40
2022/12/02 10:57:35;;;;;;;;;;;3.60;99.90;;;;;;5099173;28;20381;-39
2022/12/02 11:00:03;;;;;;;;;;;3.50;99.90;;;;;;5113279;28;19908;-40
2022/12/02 11:02:34;;;;;;;;;;;3.50;99.90;;;;;;5112673;28;19916;-40
2022/12/02 11:05:11;;;;;;;;;;;3.50;99.90;;;;;;5108164;28;20010;-39
2022/12/02 11:07:36;;;;;;;;;;;3.60;99.90;;;;;;5104312;28;20359;-39
2022/12/02 11:10:02;;;;;;;;;;;3.60;99.90;;;;;;5092822;28;19924;-39
2022/12/02 11:12:29;;;;;;;;;;;3.60;99.90;;;;;;5093618;28;19908;-39
2022/12/02 11:14:57;;;;;;;;;;;3.60;99.90;;;;;;5092952;28;20409;-40
2022/12/02 11:17:41;;;;;;;;;;;3.60;99.90;;;;;;5092965;28;20365;-39
2022/12/02 11:20:27;;;;;;;;;;;3.60;99.90;;;;;;5103554;28;19912;-40
2022/12/02 11:22:55;;;;;;;;;;;3.60;99.90;;;;;;5099840;28;19989;-39
2022/12/02 11:25:40;;;;;;;;;;;3.60;99.90;;;;;;5102373;28;19919;-39
2022/12/02 11:28:17;;;;;;;;;;;3.60;99.90;;;;;;5098875;28;19942;-39
2022/12/02 11:30:46;;;;;;;;;;;3.60;99.90;;;;;;5093107;28;20350;-39
2022/12/02 11:33:13;;;;;;;;;;;3.50;99.90;;;;;;5108418;28;19915;-42
2022/12/02 11:35:57;;;;;;;;;;;3.50;99.90;;;;;;5107887;28;20363;-39
2022/12/02 11:38:25;;;;;;;;;;;3.50;99.90;;;;;;5104578;28;19919;-38
2022/12/02 11:40:50;;;;;;;;;;;3.50;99.90;;;;;;5111444;28;19966;-39
2022/12/02 11:43:35;;;;;;;;;;;3.50;99.90;;;;;;5113810;28;19973;-40
2022/12/02 11:46:02;;;;;;;;;;;3.60;99.90;;;;;;5128579;27;20337;-40
2022/12/02 11:48:28;;;;;;;;;;;3.60;99.90;;;;;;5132469;27;19920;-39
2022/12/02 11:50:54;;;;;;;;;;;3.60;99.90;;;;;;5088058;28;19912;-39
2022/12/02 11:53:21;;;;;;;;;;;3.60;99.90;;;;;;5118338;27;19912;-39
2022/12/02 11:55:51;;;;;;;;;;;3.60;99.90;;;;;;5105561;28;19912;-41
2022/12/02 11:58:18;;;;;;;;;;;3.60;99.90;;;;;;5102371;28;20385;-40
2022/12/02 12:01:02;;;;;;;;;;;3.60;99.90;;;;;;5108915;28;19985;-40
2022/12/02 12:03:28;;;;;;;;;;;3.60;99.90;;;;;;5106576;28;19923;-39
2022/12/02 12:06:10;;;;;;;;;;;3.60;99.90;;;;;;5106784;27;19991;-40
2022/12/02 12:08:37;;;;;;;;;;;3.60;99.90;;;;;;5105795;28;19919;-39
2022/12/02 12:11:19;;;;;;;;;;;3.60;99.90;;;;;;5125618;27;19966;-39
2022/12/02 12:14:03;;;;;;;;;;;3.60;99.90;;;;;;5116302;27;19938;-40
2022/12/02 12:16:33;;;;;;;;;;;3.50;99.90;;;;;;5096157;28;19982;-40
2022/12/02 12:19:00;;;;;;;;;;;3.60;99.90;;;;;;5099316;28;19911;-41
2022/12/02 12:21:31;;;;;;;;;;;3.60;99.90;;;;;;5108500;28;19920;-41
2022/12/02 12:24:24;;;;;;;;;;;3.60;99.90;;;;;;5102122;28;20014;-40
2022/12/02 12:26:51;;;;;;;;;;;3.60;99.90;;;;;;5099535;28;21304;-40
2022/12/02 12:29:17;;;;;;;;;;;3.50;99.90;;;;;;5103264;28;19920;-42
2022/12/02 12:31:42;;;;;;;;;;;3.50;99.90;;;;;;5116324;28;19917;-40
2022/12/02 12:34:08;;;;;;;;;;;3.40;99.90;;;;;;5110016;28;19989;-42
2022/12/02 12:36:34;;;;;;;;;;;3.40;99.90;;;;;;5094762;28;19915;-39
2022/12/02 12:39:00;;;;;;;;;;;3.40;99.90;;;;;;5094004;28;19908;-42
2022/12/02 12:41:25;;;;;;;;;;;3.40;99.90;;;;;;5094092;28;19916;-40
2022/12/02 12:43:51;;;;;;;;;;;3.40;99.90;;;;;;5096545;28;19916;-41
2022/12/02 12:46:16;;;;;;;;;;;3.40;99.90;;;;;;5115438;28;19911;-39
2022/12/02 12:48:42;;;;;;;;;;;3.40;99.90;;;;;;5115148;28;19951;-41
2022/12/02 12:51:08;;;;;;;;;;;3.40;99.90;;;;;;5116015;28;19908;-40
2022/12/02 12:53:33;;;;;;;;;;;3.40;99.90;;;;;;5115974;28;20279;-40
2022/12/02 12:55:59;;;;;;;;;;;3.40;99.90;;;;;;5094574;28;20386;-39
2022/12/02 12:58:24;;;;;;;;;;;3.40;99.90;;;;;;5094708;28;19935;-40
2022/12/02 13:00:49;;;;;;;;;;;3.30;99.90;;;;;;5095297;28;20328;-40
2022/12/02 13:03:15;;;;;;;;;;;3.30;99.90;;;;;;5094563;28;19908;-40
2022/12/02 13:05:40;;;;;;;;;;;3.30;99.90;;;;;;5096283;28;19912;-40
2022/12/02 13:08:06;;;;;;;;;;;3.30;99.90;;;;;;5094816;28;19908;-41
2022/12/02 13:10:31;;;;;;;;;;;3.30;99.90;;;;;;5094944;28;20387;-41
2022/12/02 13:12:57;;;;;;;;;;;3.30;99.90;;;;;;5101476;28;19920;-40
2022/12/02 13:15:22;;;;;;;;;;;3.30;99.90;;;;;;5114711;28;19985;-41
2022/12/02 13:17:48;;;;;;;;;;;3.30;99.90;;;;;;5115486;28;20351;-41
2022/12/02 13:20:13;;;;;;;;;;;3.30;99.90;;;;;;5115466;28;19930;-40
2022/12/02 13:22:39;;;;;;;;;;;3.30;99.90;;;;;;5109892;28;19931;-40
2022/12/02 13:25:05;;;;;;;;;;;3.30;99.90;;;;;;5095035;28;19975;-39
2022/12/02 13:27:30;;;;;;;;;;;3.30;99.90;;;;;;5094992;28;19912;-41
2022/12/02 13:29:56;;;;;;;;;;;3.30;99.90;;;;;;5094125;28;19916;-41
2022/12/02 13:32:21;;;;;;;;;;;3.30;99.90;;;;;;5096296;28;20881;-40
2022/12/02 13:34:47;;;;;;;;;;;3.30;99.90;;;;;;5115180;28;20331;-40
2022/12/02 13:37:12;;;;;;;;;;;3.30;99.90;;;;;;5114409;28;20002;-39
2022/12/02 13:39:38;;;;;;;;;;;3.30;99.90;;;;;;5115032;28;20427;-42
2022/12/02 13:42:03;;;;;;;;;;;3.30;99.90;;;;;;5115081;28;20361;-39
2022/12/02 13:44:29;;;;;;;;;;;3.30;99.90;;;;;;5094318;28;19916;-41
2022/12/02 13:46:54;;;;;;;;;;;3.30;99.90;;;;;;5094470;28;19912;-41
2022/12/02 13:49:19;;;;;;;;;;;3.30;99.90;;;;;;5094502;28;19908;-41
2022/12/02 13:51:45;;;;;;;;;;;3.30;99.90;;;;;;5093557;28;20006;-40
2022/12/02 13:54:10;;;;;;;;;;;3.30;99.90;;;;;;5110529;28;19918;-41
2022/12/02 13:56:36;;;;;;;;;;;3.30;99.90;;;;;;5114709;28;19908;-40
2022/12/02 13:59:01;;;;;;;;;;;3.30;99.90;;;;;;5113892;28;20281;-40
2022/12/02 14:01:27;;;;;;;;;;;3.20;99.90;;;;;;5114514;28;19972;-41
2022/12/02 14:03:52;;;;;;;;;;;3.30;99.90;;;;;;5112933;28;19916;-41
2022/12/02 14:06:18;;;;;;;;;;;3.30;99.90;;;;;;5113865;28;19908;-41
2022/12/02 14:08:43;;;;;;;;;;;3.30;99.90;;;;;;5114113;28;19998;-41
2022/12/02 14:11:09;;;;;;;;;;;3.20;99.90;;;;;;5114213;28;19931;-40
2022/12/02 14:13:34;;;;;;;;;;;3.20;99.90;;;;;;5102132;28;19919;-39
2022/12/02 14:16:00;;;;;;;;;;;3.30;99.90;;;;;;5093876;28;19954;-40
2022/12/02 14:18:25;;;;;;;;;;;3.20;99.90;;;;;;5093161;28;19947;-40
2022/12/02 14:20:51;;;;;;;;;;;3.20;99.90;;;;;;5093813;28;19927;-39
2022/12/02 14:23:16;;;;;;;;;;;3.20;99.90;;;;;;5101438;28;19923;-40
2022/12/02 14:25:42;;;;;;;;;;;3.20;99.90;;;;;;5113196;28;19912;-41
2022/12/02 14:28:07;;;;;;;;;;;3.20;99.90;;;;;;5114105;28;19931;-40
2022/12/02 14:30:33;;;;;;;;;;;3.30;99.90;;;;;;5113973;28;19990;-40
2022/12/02 14:32:58;;;;;;;;;;;3.20;99.90;;;;;;5107764;28;19919;-39
2022/12/02 14:35:24;;;;;;;;;;;3.20;99.90;;;;;;5093494;28;19912;-40